Current Conditions
Light Rain
Showers



Pressure
1007.42 (hPa) - 29.75 (inHG)
Visibility

5.0 (km) - 3.1 (miles)
   Temperature
15  °C
59°F
12  °C
Dewpoint
82  %
 Humidity
   Wind Speed
26  km/h
14  kts
16  mph
7.2  m/s
   Wind Direction
 160°
South South
East
   Airport Data
CYQQ
Location Comox Airport 49 km (30.45 mi)
Metar :CYQQ 230900Z 16014KT 3SM -RA BKN045 OVC060 15/12 A2975 RMK SC6SC2 VIS VRB 2-4 SLP075
Wed 23rd September 01:00 am
   Raw Metar Info
Raw METAR is the most common format in the world for the transmission of observational weather data. It is highly standardized through the International Civil Aviation Organization (ICAO), which allows it to be understood throughout most of the world.
   API Info
Data Provided by
https://www.checkwx.com/weather/CYQQ
   © Info
CSS/SVG/PHP scripts were developed by weather34.com for use in the weather34 template © 2015-2020

Guide Info provided by Metar-Wikipedia